sensor_id;sensor_type;location;lat;lon;timestamp;pressure;altitude;pressure_sealevel;temperature;humidity
11099;BME280;12223;42.650;23.364;2024-03-23T00:54:20;94820.72;;;2.05;66.70
11099;BME280;12223;42.650;23.364;2024-03-23T00:56:45;94822.09;;;2.07;66.40
11099;BME280;12223;42.650;23.364;2024-03-23T00:59:11;94812.31;;;2.11;66.25
11099;BME280;12223;42.650;23.364;2024-03-23T01:01:37;94820.34;;;2.08;66.43
11099;BME280;12223;42.650;23.364;2024-03-23T01:04:02;94815.22;;;2.08;66.55
11099;BME280;12223;42.650;23.364;2024-03-23T01:06:28;94819.59;;;2.14;66.83
11099;BME280;12223;42.650;23.364;2024-03-23T01:08:53;94818.78;;;2.13;66.36
11099;BME280;12223;42.650;23.364;2024-03-23T01:11:18;94818.31;;;1.97;66.54
11099;BME280;12223;42.650;23.364;2024-03-23T01:13:44;94811.88;;;2.01;66.21
11099;BME280;12223;42.650;23.364;2024-03-23T01:16:09;94812.78;;;1.93;66.47
11099;BME280;12223;42.650;23.364;2024-03-23T01:18:34;94814.56;;;1.93;67.15
11099;BME280;12223;42.650;23.364;2024-03-23T01:21:00;94815.16;;;1.95;67.52
11099;BME280;12223;42.650;23.364;2024-03-23T01:23:26;94808.97;;;1.76;67.70
11099;BME280;12223;42.650;23.364;2024-03-23T01:25:55;94811.16;;;1.58;68.42
11099;BME280;12223;42.650;23.364;2024-03-23T01:28:21;94805.19;;;1.44;69.96
11099;BME280;12223;42.650;23.364;2024-03-23T01:30:47;94799.63;;;1.34;69.50
11099;BME280;12223;42.650;23.364;2024-03-23T01:33:12;94813.53;;;1.59;69.70
11099;BME280;12223;42.650;23.364;2024-03-23T01:35:38;94816.78;;;1.75;68.95
11099;BME280;12223;42.650;23.364;2024-03-23T01:38:03;94810.06;;;1.95;67.15
11099;BME280;12223;42.650;23.364;2024-03-23T01:40:29;94809.31;;;2.01;66.21
11099;BME280;12223;42.650;23.364;2024-03-23T01:43:05;94804.47;;;2.06;66.48
11099;BME280;12223;42.650;23.364;2024-03-23T01:45:33;94810.59;;;2.18;66.18
11099;BME280;12223;42.650;23.364;2024-03-23T01:47:59;94817.47;;;2.18;66.80
11099;BME280;12223;42.650;23.364;2024-03-23T01:50:25;94807.72;;;2.28;65.22
11099;BME280;12223;42.650;23.364;2024-03-23T01:52:51;94808.59;;;2.13;65.50
11099;BME280;12223;42.650;23.364;2024-03-23T01:55:16;94810.00;;;2.16;65.75
11099;BME280;12223;42.650;23.364;2024-03-23T01:57:43;94810.19;;;2.14;65.43
11099;BME280;12223;42.650;23.364;2024-03-23T02:00:09;94816.28;;;1.86;66.01
11099;BME280;12223;42.650;23.364;2024-03-23T02:02:43;94813.56;;;1.66;67.52
11099;BME280;12223;42.650;23.364;2024-03-23T02:05:10;94823.59;;;1.67;67.03
11099;BME280;12223;42.650;23.364;2024-03-23T02:07:37;94814.75;;;1.42;67.27
11099;BME280;12223;42.650;23.364;2024-03-23T02:10:05;94816.41;;;1.07;68.20
11099;BME280;12223;42.650;23.364;2024-03-23T02:12:31;94811.72;;;0.90;68.75
11099;BME280;12223;42.650;23.364;2024-03-23T02:14:56;94814.03;;;1.06;68.89
11099;BME280;12223;42.650;23.364;2024-03-23T02:17:22;94812.44;;;1.05;69.78
11099;BME280;12223;42.650;23.364;2024-03-23T02:19:47;94813.41;;;0.82;69.16
11099;BME280;12223;42.650;23.364;2024-03-23T02:22:12;94819.47;;;0.81;68.54
11099;BME280;12223;42.650;23.364;2024-03-23T02:24:38;94826.97;;;0.90;69.49
11099;BME280;12223;42.650;23.364;2024-03-23T02:27:03;94819.25;;;0.98;68.20
11099;BME280;12223;42.650;23.364;2024-03-23T02:29:29;94816.00;;;0.89;69.43
11099;BME280;12223;42.650;23.364;2024-03-23T02:31:54;94812.63;;;0.82;69.31
11099;BME280;12223;42.650;23.364;2024-03-23T02:34:20;94817.91;;;1.02;68.17
11099;BME280;12223;42.650;23.364;2024-03-23T02:36:45;94815.31;;;1.16;68.43
11099;BME280;12223;42.650;23.364;2024-03-23T02:39:10;94818.28;;;1.20;68.01
11099;BME280;12223;42.650;23.364;2024-03-23T02:41:36;94819.94;;;1.27;67.60
11099;BME280;12223;42.650;23.364;2024-03-23T02:44:02;94819.69;;;1.44;67.50
11099;BME280;12223;42.650;23.364;2024-03-23T02:46:27;94823.72;;;1.59;66.19
11099;BME280;12223;42.650;23.364;2024-03-23T02:48:52;94817.06;;;1.37;66.00
11099;BME280;12223;42.650;23.364;2024-03-23T02:51:18;94814.09;;;1.34;66.29
11099;BME280;12223;42.650;23.364;2024-03-23T02:53:43;94818.03;;;1.36;66.45
11099;BME280;12223;42.650;23.364;2024-03-23T02:56:09;94816.81;;;1.53;66.02
11099;BME280;12223;42.650;23.364;2024-03-23T02:58:34;94819.84;;;1.42;66.17
11099;BME280;12223;42.650;23.364;2024-03-23T03:00:59;94810.78;;;1.12;67.43
11099;BME280;12223;42.650;23.364;2024-03-23T03:03:25;94812.09;;;0.87;68.46
11099;BME280;12223;42.650;23.364;2024-03-23T03:05:56;94809.28;;;0.81;68.69
11099;BME280;12223;42.650;23.364;2024-03-23T03:08:22;94801.97;;;0.93;68.39
11099;BME280;12223;42.650;23.364;2024-03-23T03:10:47;94808.50;;;0.81;68.85
11099;BME280;12223;42.650;23.364;2024-03-23T03:13:12;94806.81;;;0.88;68.63
11099;BME280;12223;42.650;23.364;2024-03-23T03:15:40;94808.19;;;0.91;68.18
11099;BME280;12223;42.650;23.364;2024-03-23T03:18:05;94810.66;;;0.84;67.93
11099;BME280;12223;42.650;23.364;2024-03-23T03:20:31;94813.66;;;0.88;68.84
11099;BME280;12223;42.650;23.364;2024-03-23T03:22:57;94813.41;;;1.04;68.08
11099;BME280;12223;42.650;23.364;2024-03-23T03:25:22;94821.03;;;1.04;68.33
11099;BME280;12223;42.650;23.364;2024-03-23T03:27:47;94815.25;;;1.10;68.40
11099;BME280;12223;42.650;23.364;2024-03-23T03:30:13;94821.06;;;1.25;67.64
11099;BME280;12223;42.650;23.364;2024-03-23T03:32:38;94815.31;;;1.38;66.65
11099;BME280;12223;42.650;23.364;2024-03-23T03:35:04;94824.41;;;1.25;67.50
11099;BME280;12223;42.650;23.364;2024-03-23T03:37:30;94814.16;;;0.98;68.84
11099;BME280;12223;42.650;23.364;2024-03-23T03:39:55;94809.19;;;1.11;68.22
11099;BME280;12223;42.650;23.364;2024-03-23T03:42:20;94815.25;;;1.31;67.09
11099;BME280;12223;42.650;23.364;2024-03-23T03:44:46;94810.09;;;1.03;68.46
11099;BME280;12223;42.650;23.364;2024-03-23T03:47:11;94810.53;;;1.07;68.34
11099;BME280;12223;42.650;23.364;2024-03-23T03:49:37;94810.41;;;1.15;67.03
11099;BME280;12223;42.650;23.364;2024-03-23T03:52:02;94814.63;;;0.87;68.18
11099;BME280;12223;42.650;23.364;2024-03-23T03:54:28;94817.38;;;0.70;69.47
11099;BME280;12223;42.650;23.364;2024-03-23T03:56:53;94815.84;;;0.91;68.68
11099;BME280;12223;42.650;23.364;2024-03-23T03:59:19;94824.81;;;0.87;69.23
11099;BME280;12223;42.650;23.364;2024-03-23T04:01:45;94817.97;;;0.87;69.08
11099;BME280;12223;42.650;23.364;2024-03-23T04:04:11;94820.31;;;0.89;68.75
11099;BME280;12223;42.650;23.364;2024-03-23T04:06:36;94818.41;;;0.76;69.42
11099;BME280;12223;42.650;23.364;2024-03-23T04:09:02;94813.53;;;0.60;69.67
11099;BME280;12223;42.650;23.364;2024-03-23T04:11:27;94821.38;;;0.79;69.03
11099;BME280;12223;42.650;23.364;2024-03-23T04:13:52;94820.59;;;0.79;69.23
11099;BME280;12223;42.650;23.364;2024-03-23T04:16:28;94817.00;;;0.73;69.65
11099;BME280;12223;42.650;23.364;2024-03-23T04:18:53;94824.38;;;0.68;70.36
11099;BME280;12223;42.650;23.364;2024-03-23T04:21:19;94820.53;;;0.72;70.65
11099;BME280;12223;42.650;23.364;2024-03-23T04:23:45;94822.97;;;0.80;69.94
11099;BME280;12223;42.650;23.364;2024-03-23T04:26:10;94823.16;;;0.64;70.11
11099;BME280;12223;42.650;23.364;2024-03-23T04:28:36;94821.78;;;0.62;70.20
11099;BME280;12223;42.650;23.364;2024-03-23T04:31:05;94826.63;;;0.78;70.18
11099;BME280;12223;42.650;23.364;2024-03-23T04:33:30;94835.66;;;0.95;70.02
11099;BME280;12223;42.650;23.364;2024-03-23T04:35:56;94834.44;;;0.91;69.94
11099;BME280;12223;42.650;23.364;2024-03-23T04:38:21;94832.63;;;1.06;69.34
11099;BME280;12223;42.650;23.364;2024-03-23T04:40:54;94831.59;;;1.01;69.70
11099;BME280;12223;42.650;23.364;2024-03-23T04:43:20;94828.19;;;0.94;69.91
11099;BME280;12223;42.650;23.364;2024-03-23T04:45:45;94840.28;;;1.06;69.76
11099;BME280;12223;42.650;23.364;2024-03-23T04:48:11;94832.47;;;1.29;68.33
11099;BME280;12223;42.650;23.364;2024-03-23T04:50:36;94840.50;;;1.75;67.11
11099;BME280;12223;42.650;23.364;2024-03-23T04:53:01;94827.84;;;1.88;66.03
11099;BME280;12223;42.650;23.364;2024-03-23T04:55:27;94850.63;;;2.59;64.99
11099;BME280;12223;42.650;23.364;2024-03-23T04:57:53;94853.75;;;3.08;63.15
11099;BME280;12223;42.650;23.364;2024-03-23T05:00:19;94848.75;;;3.74;61.43
11099;BME280;12223;42.650;23.364;2024-03-23T05:02:44;94847.97;;;4.00;59.83
11099;BME280;12223;42.650;23.364;2024-03-23T05:05:10;94852.72;;;4.80;58.44
11099;BME280;12223;42.650;23.364;2024-03-23T05:07:36;94850.09;;;5.38;57.54
11099;BME280;12223;42.650;23.364;2024-03-23T05:10:02;94846.31;;;5.72;56.21
11099;BME280;12223;42.650;23.364;2024-03-23T05:12:28;94849.50;;;6.42;54.24
11099;BME280;12223;42.650;23.364;2024-03-23T05:14:53;94851.03;;;6.67;52.78
11099;BME280;12223;42.650;23.364;2024-03-23T05:17:19;94844.63;;;7.66;50.44
11099;BME280;12223;42.650;23.364;2024-03-23T05:19:45;94845.03;;;8.16;49.35
11099;BME280;12223;42.650;23.364;2024-03-23T05:22:12;94845.16;;;8.68;48.39
11099;BME280;12223;42.650;23.364;2024-03-23T05:24:37;94844.09;;;8.92;45.41
11099;BME280;12223;42.650;23.364;2024-03-23T05:27:03;94844.56;;;9.46;44.92
11099;BME280;12223;42.650;23.364;2024-03-23T05:29:28;94835.00;;;9.58;42.43
11099;BME280;12223;42.650;23.364;2024-03-23T05:31:54;94843.56;;;9.18;44.01
11099;BME280;12223;42.650;23.364;2024-03-23T05:34:22;94835.19;;;9.11;43.43
11099;BME280;12223;42.650;23.364;2024-03-23T05:36:47;94846.66;;;11.04;43.36
11099;BME280;12223;42.650;23.364;2024-03-23T05:39:14;94846.03;;;12.26;38.63
11099;BME280;12223;42.650;23.364;2024-03-23T05:41:42;94845.22;;;12.57;37.43
11099;BME280;12223;42.650;23.364;2024-03-23T05:44:07;94840.09;;;12.72;34.83
11099;BME280;12223;42.650;23.364;2024-03-23T05:46:34;94844.41;;;10.47;39.84
11099;BME280;12223;42.650;23.364;2024-03-23T05:49:01;94850.06;;;12.07;38.50
11099;BME280;12223;42.650;23.364;2024-03-23T05:51:27;94847.47;;;12.96;33.58
11099;BME280;12223;42.650;23.364;2024-03-23T05:53:53;94841.94;;;10.57;37.93
11099;BME280;12223;42.650;23.364;2024-03-23T05:56:19;94839.66;;;10.39;38.53
11099;BME280;12223;42.650;23.364;2024-03-23T05:58:46;94843.00;;;11.22;36.48
11099;BME280;12223;42.650;23.364;2024-03-23T06:01:12;94841.41;;;12.75;37.24
11099;BME280;12223;42.650;23.364;2024-03-23T06:03:38;94843.84;;;14.60;33.55
11099;BME280;12223;42.650;23.364;2024-03-23T06:06:05;94851.59;;;16.85;31.13
11099;BME280;12223;42.650;23.364;2024-03-23T06:08:35;94845.84;;;17.92;29.65
11099;BME280;12223;42.650;23.364;2024-03-23T06:11:01;94850.91;;;19.76;25.81
11099;BME280;12223;42.650;23.364;2024-03-23T06:13:26;94849.34;;;20.33;24.50
11099;BME280;12223;42.650;23.364;2024-03-23T06:15:55;94839.13;;;19.24;24.71
11099;BME280;12223;42.650;23.364;2024-03-23T06:18:20;94841.09;;;20.49;24.85
11099;BME280;12223;42.650;23.364;2024-03-23T06:20:46;94842.22;;;20.87;23.02
11099;BME280;12223;42.650;23.364;2024-03-23T06:23:11;94846.09;;;20.59;23.68
11099;BME280;12223;42.650;23.364;2024-03-23T06:25:38;94843.38;;;20.42;22.49
11099;BME280;12223;42.650;23.364;2024-03-23T06:28:03;94843.53;;;20.23;23.41
11099;BME280;12223;42.650;23.364;2024-03-23T06:30:29;94845.03;;;19.57;24.30
11099;BME280;12223;42.650;23.364;2024-03-23T06:32:55;94846.97;;;19.87;23.79
11099;BME280;12223;42.650;23.364;2024-03-23T06:35:20;94842.13;;;19.31;25.13
11099;BME280;12223;42.650;23.364;2024-03-23T06:37:46;94847.53;;;18.34;25.63
11099;BME280;12223;42.650;23.364;2024-03-23T06:40:11;94837.66;;;18.31;26.48
11099;BME280;12223;42.650;23.364;2024-03-23T06:42:37;94842.25;;;17.69;26.00
11099;BME280;12223;42.650;23.364;2024-03-23T06:45:06;94843.00;;;16.56;26.89
11099;BME280;12223;42.650;23.364;2024-03-23T06:47:31;94844.78;;;15.98;28.25
11099;BME280;12223;42.650;23.364;2024-03-23T06:49:58;94841.53;;;15.28;29.82
11099;BME280;12223;42.650;23.364;2024-03-23T06:52:24;94830.09;;;14.29;32.12
11099;BME280;12223;42.650;23.364;2024-03-23T06:54:49;94835.47;;;13.42;32.47
11099;BME280;12223;42.650;23.364;2024-03-23T06:57:15;94835.72;;;12.31;34.38
11099;BME280;12223;42.650;23.364;2024-03-23T06:59:40;94827.41;;;11.65;36.86
11099;BME280;12223;42.650;23.364;2024-03-23T07:02:05;94832.41;;;11.45;37.72
11099;BME280;12223;42.650;23.364;2024-03-23T07:04:34;94824.63;;;11.45;38.73
11099;BME280;12223;42.650;23.364;2024-03-23T07:06:59;94817.53;;;11.35;38.50
11099;BME280;12223;42.650;23.364;2024-03-23T07:09:24;94813.72;;;10.94;40.02
11099;BME280;12223;42.650;23.364;2024-03-23T07:11:53;94814.63;;;10.61;41.09
11099;BME280;12223;42.650;23.364;2024-03-23T07:14:19;94806.47;;;9.98;40.85
11099;BME280;12223;42.650;23.364;2024-03-23T07:16:44;94808.59;;;10.17;41.60
11099;BME280;12223;42.650;23.364;2024-03-23T07:19:10;94806.63;;;9.91;40.59
11099;BME280;12223;42.650;23.364;2024-03-23T07:21:38;94808.34;;;9.52;42.45
11099;BME280;12223;42.650;23.364;2024-03-23T07:24:04;94810.41;;;9.38;43.11
11099;BME280;12223;42.650;23.364;2024-03-23T07:26:29;94805.50;;;9.37;44.02
11099;BME280;12223;42.650;23.364;2024-03-23T07:28:54;94802.72;;;9.72;42.54
11099;BME280;12223;42.650;23.364;2024-03-23T07:31:20;94800.38;;;9.87;42.89
11099;BME280;12223;42.650;23.364;2024-03-23T07:33:46;94801.59;;;9.51;42.49
11099;BME280;12223;42.650;23.364;2024-03-23T07:36:12;94794.00;;;9.45;44.51
11099;BME280;12223;42.650;23.364;2024-03-23T07:38:40;94791.53;;;9.83;43.67
11099;BME280;12223;42.650;23.364;2024-03-23T07:41:08;94788.41;;;10.14;42.93
11099;BME280;12223;42.650;23.364;2024-03-23T07:43:34;94793.28;;;10.49;41.30
11099;BME280;12223;42.650;23.364;2024-03-23T07:46:00;94797.97;;;10.74;40.86
11099;BME280;12223;42.650;23.364;2024-03-23T07:48:26;94792.72;;;10.47;42.04
11099;BME280;12223;42.650;23.364;2024-03-23T07:50:57;94790.34;;;10.41;42.30
11099;BME280;12223;42.650;23.364;2024-03-23T07:53:23;94786.25;;;10.45;41.47
11099;BME280;12223;42.650;23.364;2024-03-23T07:55:55;94783.72;;;10.50;42.80
11099;BME280;12223;42.650;23.364;2024-03-23T07:58:21;94785.94;;;10.63;43.09
11099;BME280;12223;42.650;23.364;2024-03-23T08:00:46;94789.03;;;10.82;43.09
11099;BME280;12223;42.650;23.364;2024-03-23T08:03:11;94785.88;;;11.01;41.41
11099;BME280;12223;42.650;23.364;2024-03-23T08:05:37;94782.53;;;10.79;40.99
11099;BME280;12223;42.650;23.364;2024-03-23T08:08:02;94787.75;;;10.41;40.93
11099;BME280;12223;42.650;23.364;2024-03-23T08:10:28;94790.91;;;10.09;42.85
11099;BME280;12223;42.650;23.364;2024-03-23T08:12:53;94785.97;;;9.91;43.41
11099;BME280;12223;42.650;23.364;2024-03-23T08:15:18;94782.22;;;9.82;43.53
11099;BME280;12223;42.650;23.364;2024-03-23T08:17:44;94789.91;;;9.77;43.24
11099;BME280;12223;42.650;23.364;2024-03-23T08:20:09;94782.84;;;9.56;43.87
11099;BME280;12223;42.650;23.364;2024-03-23T08:22:35;94781.28;;;9.71;42.82
11099;BME280;12223;42.650;23.364;2024-03-23T08:25:01;94778.09;;;9.81;43.82
11099;BME280;12223;42.650;23.364;2024-03-23T08:27:26;94777.69;;;9.89;42.38
11099;BME280;12223;42.650;23.364;2024-03-23T08:29:52;94770.56;;;9.96;42.59
11099;BME280;12223;42.650;23.364;2024-03-23T08:32:17;94770.78;;;10.11;42.50
11099;BME280;12223;42.650;23.364;2024-03-23T08:34:42;94774.72;;;10.31;41.19
11099;BME280;12223;42.650;23.364;2024-03-23T08:37:08;94776.72;;;10.67;42.01
11099;BME280;12223;42.650;23.364;2024-03-23T08:39:33;94772.31;;;10.89;41.22
11099;BME280;12223;42.650;23.364;2024-03-23T08:41:58;94766.84;;;10.64;40.55
11099;BME280;12223;42.650;23.364;2024-03-23T08:44:24;94760.47;;;10.28;42.74
11099;BME280;12223;42.650;23.364;2024-03-23T08:46:49;94758.31;;;10.63;42.84
11099;BME280;12223;42.650;23.364;2024-03-23T08:49:15;94755.72;;;10.85;40.31
11099;BME280;12223;42.650;23.364;2024-03-23T08:51:40;94750.16;;;10.98;41.43
11099;BME280;12223;42.650;23.364;2024-03-23T08:54:05;94750.44;;;10.97;39.08
11099;BME280;12223;42.650;23.364;2024-03-23T08:56:31;94746.16;;;10.86;39.56
11099;BME280;12223;42.650;23.364;2024-03-23T08:58:56;94746.78;;;10.93;39.72
11099;BME280;12223;42.650;23.364;2024-03-23T09:01:21;94743.97;;;10.99;41.31
11099;BME280;12223;42.650;23.364;2024-03-23T09:03:47;94739.50;;;11.17;42.42
11099;BME280;12223;42.650;23.364;2024-03-23T09:06:14;94730.25;;;11.26;40.10
11099;BME280;12223;42.650;23.364;2024-03-23T09:08:40;94728.22;;;11.28;39.26
11099;BME280;12223;42.650;23.364;2024-03-23T09:11:07;94726.69;;;11.32;40.69
11099;BME280;12223;42.650;23.364;2024-03-23T09:13:34;94724.16;;;11.37;40.34
11099;BME280;12223;42.650;23.364;2024-03-23T09:16:00;94711.13;;;11.59;40.61
11099;BME280;12223;42.650;23.364;2024-03-23T09:18:25;94717.34;;;11.89;39.17
11099;BME280;12223;42.650;23.364;2024-03-23T09:20:51;94712.97;;;11.95;39.92
11099;BME280;12223;42.650;23.364;2024-03-23T09:23:18;94713.19;;;11.88;39.69
11099;BME280;12223;42.650;23.364;2024-03-23T09:25:44;94703.66;;;11.62;39.09
11099;BME280;12223;42.650;23.364;2024-03-23T09:28:09;94696.69;;;11.31;39.43
11099;BME280;12223;42.650;23.364;2024-03-23T09:30:35;94696.84;;;11.51;38.98
11099;BME280;12223;42.650;23.364;2024-03-23T09:33:02;94696.84;;;11.51;37.70
11099;BME280;12223;42.650;23.364;2024-03-23T09:35:28;94686.03;;;11.59;37.85
11099;BME280;12223;42.650;23.364;2024-03-23T09:37:53;94685.41;;;11.74;38.36
11099;BME280;12223;42.650;23.364;2024-03-23T09:40:20;94685.94;;;11.76;36.34
11099;BME280;12223;42.650;23.364;2024-03-23T09:42:52;94675.97;;;11.63;37.13
11099;BME280;12223;42.650;23.364;2024-03-23T09:45:21;94675.31;;;11.77;37.34
11099;BME280;12223;42.650;23.364;2024-03-23T09:47:47;94671.34;;;12.07;38.47
11099;BME280;12223;42.650;23.364;2024-03-23T09:50:13;94668.84;;;12.27;36.25
11099;BME280;12223;42.650;23.364;2024-03-23T09:52:39;94660.53;;;12.25;35.80
11099;BME280;12223;42.650;23.364;2024-03-23T09:55:08;94656.47;;;12.44;35.25
11099;BME280;12223;42.650;23.364;2024-03-23T09:57:33;94654.66;;;12.45;34.42
11099;BME280;12223;42.650;23.364;2024-03-23T09:59:59;94651.78;;;12.36;35.48
11099;BME280;12223;42.650;23.364;2024-03-23T10:02:24;94648.16;;;12.37;35.01
11099;BME280;12223;42.650;23.364;2024-03-23T10:04:50;94644.47;;;12.28;36.91
11099;BME280;12223;42.650;23.364;2024-03-23T10:07:19;94641.66;;;12.29;36.78
11099;BME280;12223;42.650;23.364;2024-03-23T10:09:45;94634.25;;;12.63;37.37
11099;BME280;12223;42.650;23.364;2024-03-23T10:12:13;94630.59;;;12.69;36.71
11099;BME280;12223;42.650;23.364;2024-03-23T10:14:39;94628.56;;;12.92;36.73
11099;BME280;12223;42.650;23.364;2024-03-23T10:17:21;94622.38;;;13.18;36.21
11099;BME280;12223;42.650;23.364;2024-03-23T10:19:51;94622.38;;;13.28;35.89
11099;BME280;12223;42.650;23.364;2024-03-23T10:22:22;94617.72;;;13.30;35.27
11099;BME280;12223;42.650;23.364;2024-03-23T10:24:49;94613.56;;;13.29;34.83
11099;BME280;12223;42.650;23.364;2024-03-23T10:27:19;94611.75;;;13.14;33.66
11099;BME280;12223;42.650;23.364;2024-03-23T10:29:46;94602.91;;;12.95;35.00
11099;BME280;12223;42.650;23.364;2024-03-23T10:32:16;94601.06;;;13.01;34.97
11099;BME280;12223;42.650;23.364;2024-03-23T10:34:42;94595.41;;;13.24;34.25
11099;BME280;12223;42.650;23.364;2024-03-23T10:37:08;94603.69;;;13.56;32.89
11099;BME280;12223;42.650;23.364;2024-03-23T10:39:35;94591.47;;;13.57;33.00
11099;BME280;12223;42.650;23.364;2024-03-23T10:42:05;94585.75;;;13.65;33.88
11099;BME280;12223;42.650;23.364;2024-03-23T10:44:33;94581.06;;;13.72;33.78
11099;BME280;12223;42.650;23.364;2024-03-23T10:46:59;94579.28;;;13.63;33.96
11099;BME280;12223;42.650;23.364;2024-03-23T10:49:35;94575.59;;;13.69;33.54
11099;BME280;12223;42.650;23.364;2024-03-23T10:52:05;94567.00;;;13.78;34.29
11099;BME280;12223;42.650;23.364;2024-03-23T10:54:32;94563.59;;;13.88;33.68
11099;BME280;12223;42.650;23.364;2024-03-23T10:57:13;94546.50;;;13.77;32.90
11099;BME280;12223;42.650;23.364;2024-03-23T10:59:40;94551.88;;;13.95;33.17
11099;BME280;12223;42.650;23.364;2024-03-23T11:02:06;94545.31;;;14.13;33.23
11099;BME280;12223;42.650;23.364;2024-03-23T11:04:37;94535.84;;;14.37;32.63
11099;BME280;12223;42.650;23.364;2024-03-23T11:09:49;94523.25;;;14.88;31.74
11099;BME280;12223;42.650;23.364;2024-03-23T11:15:05;94506.22;;;15.30;30.29
11099;BME280;12223;42.650;23.364;2024-03-23T11:17:32;94503.16;;;15.52;31.07
11099;BME280;12223;42.650;23.364;2024-03-23T11:20:04;94504.91;;;15.32;30.50
11099;BME280;12223;42.650;23.364;2024-03-23T11:22:47;94504.31;;;15.12;30.55
11099;BME280;12223;42.650;23.364;2024-03-23T11:25:23;94495.31;;;14.99;30.75
11099;BME280;12223;42.650;23.364;2024-03-23T11:28:12;94493.09;;;14.87;30.44
11099;BME280;12223;42.650;23.364;2024-03-23T11:30:37;94492.09;;;14.83;30.26
11099;BME280;12223;42.650;23.364;2024-03-23T11:33:06;94481.69;;;14.83;30.49
11099;BME280;12223;42.650;23.364;2024-03-23T11:35:37;94484.22;;;14.88;30.65
11099;BME280;12223;42.650;23.364;2024-03-23T11:40:32;94478.06;;;15.08;31.27
11099;BME280;12223;42.650;23.364;2024-03-23T11:43:00;94463.31;;;15.27;30.35
11099;BME280;12223;42.650;23.364;2024-03-23T11:45:26;94462.69;;;15.36;29.26
11099;BME280;12223;42.650;23.364;2024-03-23T11:48:13;94456.03;;;15.53;29.14
11099;BME280;12223;42.650;23.364;2024-03-23T11:50:43;94444.19;;;15.61;29.01
11099;BME280;12223;42.650;23.364;2024-03-23T11:53:35;94448.81;;;15.69;29.19
11099;BME280;12223;42.650;23.364;2024-03-23T11:56:01;94438.88;;;15.47;30.33
11099;BME280;12223;42.650;23.364;2024-03-23T11:58:27;94436.06;;;15.44;30.29
11099;BME280;12223;42.650;23.364;2024-03-23T12:00:56;94426.41;;;15.44;28.92
11099;BME280;12223;42.650;23.364;2024-03-23T12:03:23;94426.03;;;15.56;29.24
11099;BME280;12223;42.650;23.364;2024-03-23T12:05:52;94419.84;;;15.70;29.93
11099;BME280;12223;42.650;23.364;2024-03-23T12:08:24;94421.91;;;15.92;29.23
11099;BME280;12223;42.650;23.364;2024-03-23T12:10:51;94405.50;;;16.10;27.66
11099;BME280;12223;42.650;23.364;2024-03-23T12:13:22;94405.63;;;16.19;28.00
11099;BME280;12223;42.650;23.364;2024-03-23T12:15:50;94402.88;;;16.29;27.84
11099;BME280;12223;42.650;23.364;2024-03-23T12:18:16;94402.91;;;16.43;28.36
11099;BME280;12223;42.650;23.364;2024-03-23T12:20:41;94399.06;;;16.54;27.40
11099;BME280;12223;42.650;23.364;2024-03-23T12:23:08;94386.38;;;16.66;28.14
11099;BME280;12223;42.650;23.364;2024-03-23T12:25:38;94395.41;;;16.55;27.56
11099;BME280;12223;42.650;23.364;2024-03-23T12:28:04;94388.44;;;16.50;27.58
11099;BME280;12223;42.650;23.364;2024-03-23T12:30:36;94385.97;;;16.59;29.17
11099;BME280;12223;42.650;23.364;2024-03-23T12:33:03;94381.06;;;16.71;27.91
11099;BME280;12223;42.650;23.364;2024-03-23T12:35:29;94378.38;;;16.76;26.77
11099;BME280;12223;42.650;23.364;2024-03-23T12:37:54;94369.41;;;16.82;27.67
11099;BME280;12223;42.650;23.364;2024-03-23T12:40:20;94376.09;;;16.88;26.46
11099;BME280;12223;42.650;23.364;2024-03-23T12:42:45;94361.84;;;16.81;27.28
11099;BME280;12223;42.650;23.364;2024-03-23T12:45:10;94361.44;;;16.74;28.11
11099;BME280;12223;42.650;23.364;2024-03-23T12:47:36;94355.34;;;16.65;27.29
11099;BME280;12223;42.650;23.364;2024-03-23T12:50:01;94356.38;;;16.50;27.25
11099;BME280;12223;42.650;23.364;2024-03-23T12:52:27;94348.03;;;16.48;27.29
11099;BME280;12223;42.650;23.364;2024-03-23T12:54:56;94349.59;;;16.49;25.96
11099;BME280;12223;42.650;23.364;2024-03-23T12:57:25;94340.88;;;16.26;25.91
11099;BME280;12223;42.650;23.364;2024-03-23T12:59:53;94337.44;;;16.44;27.27
11099;BME280;12223;42.650;23.364;2024-03-23T13:02:22;94327.09;;;16.53;25.48
11099;BME280;12223;42.650;23.364;2024-03-23T13:04:51;94325.69;;;16.74;25.21
11099;BME280;12223;42.650;23.364;2024-03-23T13:07:18;94324.44;;;16.85;24.01
11099;BME280;12223;42.650;23.364;2024-03-23T13:09:44;94317.50;;;16.81;24.82
11099;BME280;12223;42.650;23.364;2024-03-23T13:12:10;94316.75;;;16.48;24.30
11099;BME280;12223;42.650;23.364;2024-03-23T13:14:37;94315.03;;;16.57;24.30
11099;BME280;12223;42.650;23.364;2024-03-23T13:17:03;94309.28;;;16.74;24.16
11099;BME280;12223;42.650;23.364;2024-03-23T13:19:29;94309.88;;;16.98;24.42
11099;BME280;12223;42.650;23.364;2024-03-23T13:21:57;94301.56;;;17.10;24.95
11099;BME280;12223;42.650;23.364;2024-03-23T13:24:23;94301.34;;;17.20;24.99
11099;BME280;12223;42.650;23.364;2024-03-23T13:26:52;94299.75;;;17.32;24.39
11099;BME280;12223;42.650;23.364;2024-03-23T13:29:18;94292.41;;;17.34;23.68
11099;BME280;12223;42.650;23.364;2024-03-23T13:31:45;94292.00;;;17.41;23.83
11099;BME280;12223;42.650;23.364;2024-03-23T13:34:10;94290.34;;;17.45;23.86
11099;BME280;12223;42.650;23.364;2024-03-23T13:36:35;94288.09;;;17.52;23.55
11099;BME280;12223;42.650;23.364;2024-03-23T13:39:02;94284.81;;;17.60;22.71
11099;BME280;12223;42.650;23.364;2024-03-23T13:41:31;94282.81;;;17.79;24.57
11099;BME280;12223;42.650;23.364;2024-03-23T13:43:57;94283.47;;;17.85;23.70
11099;BME280;12223;42.650;23.364;2024-03-23T13:46:22;94279.66;;;17.91;21.84
11099;BME280;12223;42.650;23.364;2024-03-23T13:48:47;94272.53;;;17.83;21.86
11099;BME280;12223;42.650;23.364;2024-03-23T13:51:13;94272.53;;;17.83;22.37
11099;BME280;12223;42.650;23.364;2024-03-23T13:53:38;94259.03;;;17.90;21.65